sensor_id;sensor_type;location;lat;lon;timestamp;P1;durP1;ratioP1;P2;durP2;ratioP2
27113;SDS011;14648;49.730;8.614;2024-03-23T01:12:50;6.27;;;4.57;;
27113;SDS011;14648;49.730;8.614;2024-03-23T01:15:20;8.07;;;5.20;;
27113;SDS011;14648;49.730;8.614;2024-03-23T01:20:46;9.20;;;5.47;;
27113;SDS011;14648;49.730;8.614;2024-03-23T02:01:27;7.33;;;3.80;;
27113;SDS011;14648;49.730;8.614;2024-03-23T02:03:53;5.73;;;4.07;;
27113;SDS011;14648;49.730;8.614;2024-03-23T02:06:18;6.50;;;4.00;;
27113;SDS011;14648;49.730;8.614;2024-03-23T02:08:44;10.33;;;5.47;;
27113;SDS011;14648;49.730;8.614;2024-03-23T02:11:10;6.90;;;4.30;;
27113;SDS011;14648;49.730;8.614;2024-03-23T02:13:36;6.17;;;3.83;;
27113;SDS011;14648;49.730;8.614;2024-03-23T02:16:01;4.53;;;4.13;;
27113;SDS011;14648;49.730;8.614;2024-03-23T02:18:27;8.20;;;5.10;;
27113;SDS011;14648;49.730;8.614;2024-03-23T02:20:53;6.23;;;4.27;;
27113;SDS011;14648;49.730;8.614;2024-03-23T02:23:19;9.10;;;4.93;;
27113;SDS011;14648;49.730;8.614;2024-03-23T02:25:45;5.73;;;4.67;;
27113;SDS011;14648;49.730;8.614;2024-03-23T02:28:11;16.23;;;4.90;;
27113;SDS011;14648;49.730;8.614;2024-03-23T02:30:37;6.50;;;4.60;;
27113;SDS011;14648;49.730;8.614;2024-03-23T02:33:03;9.60;;;4.10;;
27113;SDS011;14648;49.730;8.614;2024-03-23T02:35:29;6.33;;;5.00;;
27113;SDS011;14648;49.730;8.614;2024-03-23T02:37:55;7.80;;;4.50;;
27113;SDS011;14648;49.730;8.614;2024-03-23T02:40:22;8.23;;;4.93;;
27113;SDS011;14648;49.730;8.614;2024-03-23T02:42:49;9.93;;;5.40;;
27113;SDS011;14648;49.730;8.614;2024-03-23T02:45:15;7.50;;;4.70;;
27113;SDS011;14648;49.730;8.614;2024-03-23T02:47:41;17.83;;;4.87;;
27113;SDS011;14648;49.730;8.614;2024-03-23T02:50:06;8.50;;;4.60;;
27113;SDS011;14648;49.730;8.614;2024-03-23T02:52:34;10.00;;;4.87;;
27113;SDS011;14648;49.730;8.614;2024-03-23T02:55:00;10.57;;;5.70;;
27113;SDS011;14648;49.730;8.614;2024-03-23T02:57:30;7.50;;;4.73;;
27113;SDS011;14648;49.730;8.614;2024-03-23T02:59:55;13.73;;;6.30;;
27113;SDS011;14648;49.730;8.614;2024-03-23T03:02:21;7.87;;;5.67;;
27113;SDS011;14648;49.730;8.614;2024-03-23T03:04:47;9.40;;;5.33;;
27113;SDS011;14648;49.730;8.614;2024-03-23T03:12:24;11.00;;;5.60;;
27113;SDS011;14648;49.730;8.614;2024-03-23T03:14:53;9.47;;;5.37;;
27113;SDS011;14648;49.730;8.614;2024-03-23T03:17:31;6.60;;;5.37;;
27113;SDS011;14648;49.730;8.614;2024-03-23T03:19:59;11.90;;;6.47;;
27113;SDS011;14648;49.730;8.614;2024-03-23T03:22:25;12.07;;;5.93;;
27113;SDS011;14648;49.730;8.614;2024-03-23T03:24:55;10.13;;;6.40;;
27113;SDS011;14648;49.730;8.614;2024-03-23T03:27:31;14.10;;;6.40;;
27113;SDS011;14648;49.730;8.614;2024-03-23T03:30:00;13.77;;;5.50;;
27113;SDS011;14648;49.730;8.614;2024-03-23T03:32:35;18.83;;;6.63;;
27113;SDS011;14648;49.730;8.614;2024-03-23T03:37:46;10.50;;;6.50;;
27113;SDS011;14648;49.730;8.614;2024-03-23T03:40:27;9.33;;;5.63;;
27113;SDS011;14648;49.730;8.614;2024-03-23T04:03:42;14.40;;;5.60;;
27113;SDS011;14648;49.730;8.614;2024-03-23T04:12:28;7.97;;;4.63;;
27113;SDS011;14648;49.730;8.614;2024-03-23T04:15:38;10.90;;;5.10;;
27113;SDS011;14648;49.730;8.614;2024-03-23T04:53:44;8.73;;;6.47;;
27113;SDS011;14648;49.730;8.614;2024-03-23T04:56:10;3.83;;;2.17;;
27113;SDS011;14648;49.730;8.614;2024-03-23T04:58:36;4.00;;;2.20;;
27113;SDS011;14648;49.730;8.614;2024-03-23T05:01:01;3.97;;;3.10;;
27113;SDS011;14648;49.730;8.614;2024-03-23T05:03:27;5.57;;;3.13;;
27113;SDS011;14648;49.730;8.614;2024-03-23T05:05:54;4.37;;;2.17;;
27113;SDS011;14648;49.730;8.614;2024-03-23T05:08:19;4.40;;;2.67;;
27113;SDS011;14648;49.730;8.614;2024-03-23T05:10:45;3.33;;;2.60;;
27113;SDS011;14648;49.730;8.614;2024-03-23T05:13:11;1.53;;;1.40;;
27113;SDS011;14648;49.730;8.614;2024-03-23T05:15:37;4.10;;;2.00;;
27113;SDS011;14648;49.730;8.614;2024-03-23T05:18:03;1.60;;;1.30;;
27113;SDS011;14648;49.730;8.614;2024-03-23T05:20:30;1.53;;;1.33;;
27113;SDS011;14648;49.730;8.614;2024-03-23T05:22:57;1.80;;;1.30;;
27113;SDS011;14648;49.730;8.614;2024-03-23T05:25:23;2.20;;;1.00;;
27113;SDS011;14648;49.730;8.614;2024-03-23T05:27:48;1.93;;;1.13;;
27113;SDS011;14648;49.730;8.614;2024-03-23T05:30:14;1.37;;;1.10;;
27113;SDS011;14648;49.730;8.614;2024-03-23T05:32:40;1.77;;;1.17;;
27113;SDS011;14648;49.730;8.614;2024-03-23T05:35:10;1.10;;;1.00;;
27113;SDS011;14648;49.730;8.614;2024-03-23T05:37:36;1.97;;;1.20;;
27113;SDS011;14648;49.730;8.614;2024-03-23T05:40:02;1.10;;;1.00;;
27113;SDS011;14648;49.730;8.614;2024-03-23T05:42:29;4.60;;;1.13;;
27113;SDS011;14648;49.730;8.614;2024-03-23T05:44:55;1.23;;;1.13;;
27113;SDS011;14648;49.730;8.614;2024-03-23T05:47:20;0.70;;;0.70;;
27113;SDS011;14648;49.730;8.614;2024-03-23T05:49:46;1.17;;;0.80;;
27113;SDS011;14648;49.730;8.614;2024-03-23T05:52:12;1.83;;;1.17;;
27113;SDS011;14648;49.730;8.614;2024-03-23T05:54:38;1.23;;;1.00;;
27113;SDS011;14648;49.730;8.614;2024-03-23T05:57:04;1.00;;;1.00;;
27113;SDS011;14648;49.730;8.614;2024-03-23T05:59:32;0.80;;;0.77;;
27113;SDS011;14648;49.730;8.614;2024-03-23T06:02:00;0.70;;;0.70;;
27113;SDS011;14648;49.730;8.614;2024-03-23T06:04:26;2.37;;;1.10;;
27113;SDS011;14648;49.730;8.614;2024-03-23T06:06:59;2.20;;;1.10;;
27113;SDS011;14648;49.730;8.614;2024-03-23T06:09:41;1.27;;;0.90;;
27113;SDS011;14648;49.730;8.614;2024-03-23T06:12:41;1.20;;;1.10;;
27113;SDS011;14648;49.730;8.614;2024-03-23T06:15:31;0.70;;;0.67;;
27113;SDS011;14648;49.730;8.614;2024-03-23T06:21:03;0.97;;;0.90;;
27113;SDS011;14648;49.730;8.614;2024-03-23T06:23:31;0.60;;;0.50;;
27113;SDS011;14648;49.730;8.614;2024-03-23T06:26:03;0.60;;;0.60;;
27113;SDS011;14648;49.730;8.614;2024-03-23T06:31:09;0.60;;;0.50;;
27113;SDS011;14648;49.730;8.614;2024-03-23T06:34:11;0.50;;;0.40;;
27113;SDS011;14648;49.730;8.614;2024-03-23T06:39:13;0.70;;;0.60;;
27113;SDS011;14648;49.730;8.614;2024-03-23T06:41:41;0.50;;;0.40;;
27113;SDS011;14648;49.730;8.614;2024-03-23T06:44:20;0.50;;;0.50;;
27113;SDS011;14648;49.730;8.614;2024-03-23T06:46:46;0.57;;;0.50;;
27113;SDS011;14648;49.730;8.614;2024-03-23T06:49:14;0.60;;;0.60;;
27113;SDS011;14648;49.730;8.614;2024-03-23T06:51:40;2.10;;;0.50;;
27113;SDS011;14648;49.730;8.614;2024-03-23T06:54:06;0.60;;;0.43;;
27113;SDS011;14648;49.730;8.614;2024-03-23T06:56:32;5.50;;;0.57;;
27113;SDS011;14648;49.730;8.614;2024-03-23T06:58:59;0.80;;;0.50;;
27113;SDS011;14648;49.730;8.614;2024-03-23T07:01:25;3.07;;;0.70;;
27113;SDS011;14648;49.730;8.614;2024-03-23T07:03:53;0.60;;;0.60;;
27113;SDS011;14648;49.730;8.614;2024-03-23T07:06:21;0.50;;;0.43;;
27113;SDS011;14648;49.730;8.614;2024-03-23T07:08:48;0.60;;;0.50;;
27113;SDS011;14648;49.730;8.614;2024-03-23T07:11:23;0.60;;;0.60;;
27113;SDS011;14648;49.730;8.614;2024-03-23T07:13:52;1.43;;;0.60;;
27113;SDS011;14648;49.730;8.614;2024-03-23T07:16:20;0.80;;;0.70;;
27113;SDS011;14648;49.730;8.614;2024-03-23T07:18:45;0.50;;;0.50;;
27113;SDS011;14648;49.730;8.614;2024-03-23T07:21:12;0.60;;;0.50;;
27113;SDS011;14648;49.730;8.614;2024-03-23T07:23:41;0.57;;;0.57;;
27113;SDS011;14648;49.730;8.614;2024-03-23T07:26:11;0.70;;;0.50;;
27113;SDS011;14648;49.730;8.614;2024-03-23T07:28:37;0.53;;;0.53;;
27113;SDS011;14648;49.730;8.614;2024-03-23T07:31:03;4.67;;;0.70;;
27113;SDS011;14648;49.730;8.614;2024-03-23T07:33:34;0.80;;;0.80;;
27113;SDS011;14648;49.730;8.614;2024-03-23T07:36:02;0.77;;;0.77;;
27113;SDS011;14648;49.730;8.614;2024-03-23T07:38:28;0.97;;;0.70;;
27113;SDS011;14648;49.730;8.614;2024-03-23T07:43:43;0.53;;;0.50;;
27113;SDS011;14648;49.730;8.614;2024-03-23T07:46:10;0.80;;;0.73;;
27113;SDS011;14648;49.730;8.614;2024-03-23T07:48:37;0.67;;;0.67;;
27113;SDS011;14648;49.730;8.614;2024-03-23T07:51:15;1.10;;;1.00;;
27113;SDS011;14648;49.730;8.614;2024-03-23T07:53:52;0.67;;;0.67;;
27113;SDS011;14648;49.730;8.614;2024-03-23T07:56:18;0.87;;;0.77;;
27113;SDS011;14648;49.730;8.614;2024-03-23T07:58:46;1.13;;;0.70;;
27113;SDS011;14648;49.730;8.614;2024-03-23T08:01:15;2.43;;;1.00;;
27113;SDS011;14648;49.730;8.614;2024-03-23T08:03:45;3.00;;;1.37;;
27113;SDS011;14648;49.730;8.614;2024-03-23T08:06:12;3.23;;;1.43;;
27113;SDS011;14648;49.730;8.614;2024-03-23T08:08:45;4.97;;;1.10;;
27113;SDS011;14648;49.730;8.614;2024-03-23T08:11:12;0.90;;;0.73;;
27113;SDS011;14648;49.730;8.614;2024-03-23T08:13:39;5.83;;;1.67;;
27113;SDS011;14648;49.730;8.614;2024-03-23T08:16:08;5.90;;;0.90;;
27113;SDS011;14648;49.730;8.614;2024-03-23T08:57:24;1.73;;;1.30;;
27113;SDS011;14648;49.730;8.614;2024-03-23T09:00:05;6.80;;;1.73;;
27113;SDS011;14648;49.730;8.614;2024-03-23T09:02:34;5.50;;;2.40;;
27113;SDS011;14648;49.730;8.614;2024-03-23T09:05:00;1.83;;;1.30;;
27113;SDS011;14648;49.730;8.614;2024-03-23T09:07:29;1.40;;;1.30;;
27113;SDS011;14648;49.730;8.614;2024-03-23T09:09:57;1.93;;;1.80;;
27113;SDS011;14648;49.730;8.614;2024-03-23T09:12:22;2.73;;;1.83;;
27113;SDS011;14648;49.730;8.614;2024-03-23T09:14:49;3.00;;;2.23;;
27113;SDS011;14648;49.730;8.614;2024-03-23T09:17:16;4.07;;;1.10;;
27113;SDS011;14648;49.730;8.614;2024-03-23T09:19:43;5.03;;;1.27;;
27113;SDS011;14648;49.730;8.614;2024-03-23T09:22:09;2.33;;;1.47;;
27113;SDS011;14648;49.730;8.614;2024-03-23T09:24:34;3.30;;;1.27;;
27113;SDS011;14648;49.730;8.614;2024-03-23T10:08:37;1.07;;;0.97;;
27113;SDS011;14648;49.730;8.614;2024-03-23T10:14:49;2.00;;;1.07;;
27113;SDS011;14648;49.730;8.614;2024-03-23T10:19:49;2.10;;;1.43;;
27113;SDS011;14648;49.730;8.614;2024-03-23T10:26:18;2.53;;;0.90;;
27113;SDS011;14648;49.730;8.614;2024-03-23T10:31:32;15.10;;;0.80;;
27113;SDS011;14648;49.730;8.614;2024-03-23T10:34:02;3.70;;;1.13;;
27113;SDS011;14648;49.730;8.614;2024-03-23T10:36:29;2.53;;;1.23;;
27113;SDS011;14648;49.730;8.614;2024-03-23T11:03:48;1.87;;;1.77;;
27113;SDS011;14648;49.730;8.614;2024-03-23T11:09:03;0.73;;;0.60;;
27113;SDS011;14648;49.730;8.614;2024-03-23T11:11:29;1.03;;;0.93;;
27113;SDS011;14648;49.730;8.614;2024-03-23T11:13:57;2.00;;;0.60;;
27113;SDS011;14648;49.730;8.614;2024-03-23T11:16:28;0.53;;;0.50;;
27113;SDS011;14648;49.730;8.614;2024-03-23T11:22:01;1.53;;;0.80;;
27113;SDS011;14648;49.730;8.614;2024-03-23T11:24:28;0.70;;;0.50;;
27113;SDS011;14648;49.730;8.614;2024-03-23T11:26:54;0.60;;;0.60;;
27113;SDS011;14648;49.730;8.614;2024-03-23T11:29:20;3.03;;;1.13;;
27113;SDS011;14648;49.730;8.614;2024-03-23T11:31:49;1.90;;;0.70;;
27113;SDS011;14648;49.730;8.614;2024-03-23T11:34:16;2.50;;;0.77;;
27113;SDS011;14648;49.730;8.614;2024-03-23T11:36:43;0.73;;;0.70;;
27113;SDS011;14648;49.730;8.614;2024-03-23T11:39:13;0.50;;;0.47;;
27113;SDS011;14648;49.730;8.614;2024-03-23T11:46:46;0.60;;;0.50;;
27113;SDS011;14648;49.730;8.614;2024-03-23T11:51:54;1.20;;;0.80;;
27113;SDS011;14648;49.730;8.614;2024-03-23T11:54:22;0.87;;;0.60;;
27113;SDS011;14648;49.730;8.614;2024-03-23T11:56:56;12.77;;;0.77;;
27113;SDS011;14648;49.730;8.614;2024-03-23T12:02:00;1.23;;;1.07;;
27113;SDS011;14648;49.730;8.614;2024-03-23T12:04:35;0.60;;;0.60;;
27113;SDS011;14648;49.730;8.614;2024-03-23T12:07:36;1.20;;;0.70;;
27113;SDS011;14648;49.730;8.614;2024-03-23T12:10:04;5.83;;;0.80;;
27113;SDS011;14648;49.730;8.614;2024-03-23T12:12:31;0.70;;;0.67;;
27113;SDS011;14648;49.730;8.614;2024-03-23T12:15:03;2.00;;;0.80;;
27113;SDS011;14648;49.730;8.614;2024-03-23T12:17:32;0.80;;;0.60;;
27113;SDS011;14648;49.730;8.614;2024-03-23T12:19:58;1.00;;;0.60;;
27113;SDS011;14648;49.730;8.614;2024-03-23T12:22:24;0.60;;;0.60;;
27113;SDS011;14648;49.730;8.614;2024-03-23T12:24:50;2.30;;;0.80;;
27113;SDS011;14648;49.730;8.614;2024-03-23T12:27:15;0.80;;;0.80;;
27113;SDS011;14648;49.730;8.614;2024-03-23T12:29:42;1.00;;;0.60;;
27113;SDS011;14648;49.730;8.614;2024-03-23T12:32:14;1.53;;;0.70;;
27113;SDS011;14648;49.730;8.614;2024-03-23T12:34:41;2.47;;;1.00;;
27113;SDS011;14648;49.730;8.614;2024-03-23T12:37:08;1.47;;;0.70;;
27113;SDS011;14648;49.730;8.614;2024-03-23T12:39:37;2.50;;;0.77;;
27113;SDS011;14648;49.730;8.614;2024-03-23T12:42:03;2.60;;;0.97;;
27113;SDS011;14648;49.730;8.614;2024-03-23T12:44:29;5.80;;;1.30;;
27113;SDS011;14648;49.730;8.614;2024-03-23T12:46:55;1.70;;;0.90;;
27113;SDS011;14648;49.730;8.614;2024-03-23T12:49:21;4.10;;;0.80;;
27113;SDS011;14648;49.730;8.614;2024-03-23T12:51:54;1.67;;;1.07;;
27113;SDS011;14648;49.730;8.614;2024-03-23T12:54:21;0.70;;;0.70;;
27113;SDS011;14648;49.730;8.614;2024-03-23T12:56:48;1.70;;;0.80;;
27113;SDS011;14648;49.730;8.614;2024-03-23T12:59:14;4.10;;;1.20;;
27113;SDS011;14648;49.730;8.614;2024-03-23T13:01:41;0.70;;;0.70;;
27113;SDS011;14648;49.730;8.614;2024-03-23T13:04:08;3.63;;;1.20;;
27113;SDS011;14648;49.730;8.614;2024-03-23T13:06:34;9.60;;;1.40;;
27113;SDS011;14648;49.730;8.614;2024-03-23T13:09:03;1.40;;;1.30;;
27113;SDS011;14648;49.730;8.614;2024-03-23T13:11:30;1.43;;;1.00;;
27113;SDS011;14648;49.730;8.614;2024-03-23T13:13:56;2.30;;;1.23;;
27113;SDS011;14648;49.730;8.614;2024-03-23T13:16:21;0.73;;;0.70;;
27113;SDS011;14648;49.730;8.614;2024-03-23T13:18:47;2.40;;;0.80;;
27113;SDS011;14648;49.730;8.614;2024-03-23T13:21:13;0.50;;;0.40;;
27113;SDS011;14648;49.730;8.614;2024-03-23T13:23:39;0.70;;;0.50;;
27113;SDS011;14648;49.730;8.614;2024-03-23T13:26:07;0.80;;;0.53;;
27113;SDS011;14648;49.730;8.614;2024-03-23T13:28:33;0.60;;;0.60;;
27113;SDS011;14648;49.730;8.614;2024-03-23T13:31:00;0.57;;;0.53;;
27113;SDS011;14648;49.730;8.614;2024-03-23T13:33:29;0.60;;;0.60;;
27113;SDS011;14648;49.730;8.614;2024-03-23T13:35:57;0.50;;;0.40;;
27113;SDS011;14648;49.730;8.614;2024-03-23T13:38:23;0.50;;;0.40;;
27113;SDS011;14648;49.730;8.614;2024-03-23T13:40:53;0.60;;;0.50;;
27113;SDS011;14648;49.730;8.614;2024-03-23T13:43:21;0.50;;;0.40;;
27113;SDS011;14648;49.730;8.614;2024-03-23T13:45:48;0.70;;;0.47;;
27113;SDS011;14648;49.730;8.614;2024-03-23T13:48:19;3.40;;;0.50;;
27113;SDS011;14648;49.730;8.614;2024-03-23T13:50:46;0.80;;;0.80;;
27113;SDS011;14648;49.730;8.614;2024-03-23T13:53:15;0.60;;;0.50;;
27113;SDS011;14648;49.730;8.614;2024-03-23T13:55:47;5.40;;;0.87;;
27113;SDS011;14648;49.730;8.614;2024-03-23T13:58:15;2.23;;;0.50;;
27113;SDS011;14648;49.730;8.614;2024-03-23T14:00:41;2.50;;;0.50;;
27113;SDS011;14648;49.730;8.614;2024-03-23T14:03:10;0.70;;;0.50;;
27113;SDS011;14648;49.730;8.614;2024-03-23T14:05:37;0.60;;;0.53;;
27113;SDS011;14648;49.730;8.614;2024-03-23T14:08:04;1.90;;;0.60;;
27113;SDS011;14648;49.730;8.614;2024-03-23T14:10:31;0.93;;;0.60;;
27113;SDS011;14648;49.730;8.614;2024-03-23T14:12:57;0.80;;;0.70;;
27113;SDS011;14648;49.730;8.614;2024-03-23T14:15:26;0.60;;;0.57;;
27113;SDS011;14648;49.730;8.614;2024-03-23T14:17:52;0.60;;;0.60;;
27113;SDS011;14648;49.730;8.614;2024-03-23T14:20:19;1.03;;;0.93;;
27113;SDS011;14648;49.730;8.614;2024-03-23T14:22:46;0.50;;;0.50;;
27113;SDS011;14648;49.730;8.614;2024-03-23T14:25:13;3.27;;;0.80;;
27113;SDS011;14648;49.730;8.614;2024-03-23T14:27:39;0.70;;;0.70;;
27113;SDS011;14648;49.730;8.614;2024-03-23T14:30:05;0.60;;;0.50;;
27113;SDS011;14648;49.730;8.614;2024-03-23T14:32:32;2.20;;;0.60;;
27113;SDS011;14648;49.730;8.614;2024-03-23T14:35:02;0.50;;;0.40;;
27113;SDS011;14648;49.730;8.614;2024-03-23T14:37:29;1.20;;;0.60;;
27113;SDS011;14648;49.730;8.614;2024-03-23T14:39:56;0.63;;;0.50;;
27113;SDS011;14648;49.730;8.614;2024-03-23T14:42:22;0.93;;;0.60;;
27113;SDS011;14648;49.730;8.614;2024-03-23T14:44:49;1.73;;;0.50;;
27113;SDS011;14648;49.730;8.614;2024-03-23T14:47:18;0.87;;;0.57;;
27113;SDS011;14648;49.730;8.614;2024-03-23T14:49:44;0.50;;;0.43;;
27113;SDS011;14648;49.730;8.614;2024-03-23T14:52:15;0.50;;;0.40;;
27113;SDS011;14648;49.730;8.614;2024-03-23T14:54:45;0.50;;;0.40;;
27113;SDS011;14648;49.730;8.614;2024-03-23T14:57:11;0.60;;;0.50;;
27113;SDS011;14648;49.730;8.614;2024-03-23T14:59:37;0.50;;;0.50;;
27113;SDS011;14648;49.730;8.614;2024-03-23T15:02:07;1.63;;;0.67;;
27113;SDS011;14648;49.730;8.614;2024-03-23T15:04:33;0.50;;;0.50;;
27113;SDS011;14648;49.730;8.614;2024-03-23T15:06:59;0.70;;;0.50;;
27113;SDS011;14648;49.730;8.614;2024-03-23T15:09:26;0.63;;;0.50;;
27113;SDS011;14648;49.730;8.614;2024-03-23T15:11:51;0.93;;;0.43;;
27113;SDS011;14648;49.730;8.614;2024-03-23T15:14:20;0.60;;;0.43;;
27113;SDS011;14648;49.730;8.614;2024-03-23T15:16:46;0.70;;;0.60;;
27113;SDS011;14648;49.730;8.614;2024-03-23T15:19:13;0.50;;;0.50;;
27113;SDS011;14648;49.730;8.614;2024-03-23T15:21:42;1.70;;;1.03;;
27113;SDS011;14648;49.730;8.614;2024-03-23T15:24:08;0.50;;;0.50;;
27113;SDS011;14648;49.730;8.614;2024-03-23T15:26:37;1.07;;;0.93;;
27113;SDS011;14648;49.730;8.614;2024-03-23T15:29:03;6.20;;;0.70;;
27113;SDS011;14648;49.730;8.614;2024-03-23T15:31:36;0.80;;;0.80;;
27113;SDS011;14648;49.730;8.614;2024-03-23T15:34:05;0.50;;;0.50;;
27113;SDS011;14648;49.730;8.614;2024-03-23T15:36:47;0.83;;;0.60;;
27113;SDS011;14648;49.730;8.614;2024-03-23T15:39:15;1.43;;;0.70;;
27113;SDS011;14648;49.730;8.614;2024-03-23T15:41:47;0.50;;;0.50;;
27113;SDS011;14648;49.730;8.614;2024-03-23T15:44:13;0.50;;;0.47;;
27113;SDS011;14648;49.730;8.614;2024-03-23T15:46:39;3.80;;;1.10;;
27113;SDS011;14648;49.730;8.614;2024-03-23T15:49:05;0.70;;;0.70;;
27113;SDS011;14648;49.730;8.614;2024-03-23T15:51:31;0.50;;;0.40;;
27113;SDS011;14648;49.730;8.614;2024-03-23T15:53:59;1.90;;;0.67;;
27113;SDS011;14648;49.730;8.614;2024-03-23T15:56:26;2.17;;;1.10;;
27113;SDS011;14648;49.730;8.614;2024-03-23T15:58:54;0.60;;;0.60;;
27113;SDS011;14648;49.730;8.614;2024-03-23T16:01:19;5.70;;;1.70;;
27113;SDS011;14648;49.730;8.614;2024-03-23T16:03:45;0.60;;;0.60;;
27113;SDS011;14648;49.730;8.614;2024-03-23T16:06:11;1.50;;;0.87;;
27113;SDS011;14648;49.730;8.614;2024-03-23T16:08:38;0.50;;;0.50;;
27113;SDS011;14648;49.730;8.614;2024-03-23T16:11:05;0.70;;;0.70;;
27113;SDS011;14648;49.730;8.614;2024-03-23T16:13:33;1.70;;;0.77;;
27113;SDS011;14648;49.730;8.614;2024-03-23T16:16:00;1.77;;;0.73;;
27113;SDS011;14648;49.730;8.614;2024-03-23T16:18:35;5.33;;;2.80;;
27113;SDS011;14648;49.730;8.614;2024-03-23T16:21:05;13.70;;;3.77;;
27113;SDS011;14648;49.730;8.614;2024-03-23T16:23:32;9.30;;;4.13;;
27113;SDS011;14648;49.730;8.614;2024-03-23T16:25:59;4.30;;;1.30;;
27113;SDS011;14648;49.730;8.614;2024-03-23T16:28:31;0.50;;;0.50;;
27113;SDS011;14648;49.730;8.614;2024-03-23T16:31:00;3.77;;;1.93;;
27113;SDS011;14648;49.730;8.614;2024-03-23T16:33:33;5.93;;;1.60;;
27113;SDS011;14648;49.730;8.614;2024-03-23T16:36:02;0.80;;;0.70;;
27113;SDS011;14648;49.730;8.614;2024-03-23T16:38:34;0.50;;;0.50;;
27113;SDS011;14648;49.730;8.614;2024-03-23T16:41:01;1.30;;;0.60;;
27113;SDS011;14648;49.730;8.614;2024-03-23T16:43:32;0.50;;;0.50;;
27113;SDS011;14648;49.730;8.614;2024-03-23T16:46:03;0.50;;;0.47;;
27113;SDS011;14648;49.730;8.614;2024-03-23T16:48:34;1.33;;;0.50;;
27113;SDS011;14648;49.730;8.614;2024-03-23T16:51:01;0.60;;;0.50;;
27113;SDS011;14648;49.730;8.614;2024-03-23T16:53:31;0.50;;;0.50;;
27113;SDS011;14648;49.730;8.614;2024-03-23T16:55:58;4.97;;;1.07;;
27113;SDS011;14648;49.730;8.614;2024-03-23T16:58:26;0.60;;;0.50;;
27113;SDS011;14648;49.730;8.614;2024-03-23T17:00:55;0.50;;;0.50;;
27113;SDS011;14648;49.730;8.614;2024-03-23T17:03:25;1.70;;;0.70;;
27113;SDS011;14648;49.730;8.614;2024-03-23T17:05:51;0.80;;;0.57;;
27113;SDS011;14648;49.730;8.614;2024-03-23T17:08:18;1.27;;;0.57;;
27113;SDS011;14648;49.730;8.614;2024-03-23T17:10:45;0.50;;;0.47;;
27113;SDS011;14648;49.730;8.614;2024-03-23T17:13:11;0.73;;;0.50;;
27113;SDS011;14648;49.730;8.614;2024-03-23T17:15:43;1.53;;;0.80;;
27113;SDS011;14648;49.730;8.614;2024-03-23T17:18:09;7.60;;;0.63;;
27113;SDS011;14648;49.730;8.614;2024-03-23T17:20:35;1.50;;;0.60;;
27113;SDS011;14648;49.730;8.614;2024-03-23T17:23:01;0.80;;;0.80;;
27113;SDS011;14648;49.730;8.614;2024-03-23T17:25:27;0.50;;;0.50;;
27113;SDS011;14648;49.730;8.614;2024-03-23T17:27:52;2.33;;;1.00;;
27113;SDS011;14648;49.730;8.614;2024-03-23T17:30:19;0.60;;;0.60;;
27113;SDS011;14648;49.730;8.614;2024-03-23T17:32:45;1.20;;;0.80;;
27113;SDS011;14648;49.730;8.614;2024-03-23T17:35:12;1.37;;;0.70;;
27113;SDS011;14648;49.730;8.614;2024-03-23T17:37:38;0.50;;;0.50;;
27113;SDS011;14648;49.730;8.614;2024-03-23T17:40:06;1.00;;;0.90;;
27113;SDS011;14648;49.730;8.614;2024-03-23T17:42:36;1.03;;;0.70;;
27113;SDS011;14648;49.730;8.614;2024-03-23T17:45:04;3.80;;;0.70;;
27113;SDS011;14648;49.730;8.614;2024-03-23T17:47:39;0.60;;;0.60;;
27113;SDS011;14648;49.730;8.614;2024-03-23T17:50:06;1.10;;;0.77;;
27113;SDS011;14648;49.730;8.614;2024-03-23T17:52:33;0.90;;;0.50;;
27113;SDS011;14648;49.730;8.614;2024-03-23T17:55:00;0.60;;;0.60;;
27113;SDS011;14648;49.730;8.614;2024-03-23T17:57:26;0.60;;;0.57;;
27113;SDS011;14648;49.730;8.614;2024-03-23T17:59:52;0.83;;;0.60;;
27113;SDS011;14648;49.730;8.614;2024-03-23T18:02:19;1.77;;;1.37;;
27113;SDS011;14648;49.730;8.614;2024-03-23T18:04:46;1.53;;;0.60;;
27113;SDS011;14648;49.730;8.614;2024-03-23T18:07:13;1.37;;;1.23;;
27113;SDS011;14648;49.730;8.614;2024-03-23T18:09:39;0.90;;;0.90;;
27113;SDS011;14648;49.730;8.614;2024-03-23T18:12:05;0.60;;;0.60;;
27113;SDS011;14648;49.730;8.614;2024-03-23T18:14:31;1.00;;;0.60;;
27113;SDS011;14648;49.730;8.614;2024-03-23T18:16:57;0.50;;;0.50;;
27113;SDS011;14648;49.730;8.614;2024-03-23T18:19:23;1.17;;;0.97;;
27113;SDS011;14648;49.730;8.614;2024-03-23T18:21:49;0.90;;;0.60;;
27113;SDS011;14648;49.730;8.614;2024-03-23T18:24:15;0.60;;;0.60;;
27113;SDS011;14648;49.730;8.614;2024-03-23T18:26:41;11.00;;;0.87;;
27113;SDS011;14648;49.730;8.614;2024-03-23T18:29:08;0.87;;;0.80;;
27113;SDS011;14648;49.730;8.614;2024-03-23T18:31:36;0.60;;;0.60;;
27113;SDS011;14648;49.730;8.614;2024-03-23T18:34:13;1.10;;;0.70;;
27113;SDS011;14648;49.730;8.614;2024-03-23T18:36:39;0.70;;;0.70;;
27113;SDS011;14648;49.730;8.614;2024-03-23T18:39:05;1.00;;;1.00;;
27113;SDS011;14648;49.730;8.614;2024-03-23T18:41:31;0.90;;;0.70;;
27113;SDS011;14648;49.730;8.614;2024-03-23T18:43:57;3.53;;;0.60;;
27113;SDS011;14648;49.730;8.614;2024-03-23T18:46:23;0.60;;;0.60;;
27113;SDS011;14648;49.730;8.614;2024-03-23T18:48:49;2.97;;;0.87;;
27113;SDS011;14648;49.730;8.614;2024-03-23T18:51:15;5.03;;;0.90;;
27113;SDS011;14648;49.730;8.614;2024-03-23T18:53:41;1.50;;;1.20;;
27113;SDS011;14648;49.730;8.614;2024-03-23T18:56:07;0.80;;;0.80;;
27113;SDS011;14648;49.730;8.614;2024-03-23T18:58:33;0.60;;;0.60;;
27113;SDS011;14648;49.730;8.614;2024-03-23T19:01:01;0.53;;;0.50;;
27113;SDS011;14648;49.730;8.614;2024-03-23T19:03:28;1.20;;;0.70;;
27113;SDS011;14648;49.730;8.614;2024-03-23T19:05:55;0.90;;;0.70;;
27113;SDS011;14648;49.730;8.614;2024-03-23T19:08:22;0.60;;;0.60;;
27113;SDS011;14648;49.730;8.614;2024-03-23T19:10:58;5.20;;;0.87;;
27113;SDS011;14648;49.730;8.614;2024-03-23T19:13:27;0.60;;;0.50;;
27113;SDS011;14648;49.730;8.614;2024-03-23T19:15:54;0.60;;;0.60;;
27113;SDS011;14648;49.730;8.614;2024-03-23T19:18:24;0.50;;;0.50;;
27113;SDS011;14648;49.730;8.614;2024-03-23T19:20:56;1.33;;;0.90;;
27113;SDS011;14648;49.730;8.614;2024-03-23T19:23:23;1.77;;;0.77;;
27113;SDS011;14648;49.730;8.614;2024-03-23T19:25:56;2.00;;;1.30;;
27113;SDS011;14648;49.730;8.614;2024-03-23T19:28:26;1.53;;;0.70;;
27113;SDS011;14648;49.730;8.614;2024-03-23T19:30:52;0.80;;;0.80;;
27113;SDS011;14648;49.730;8.614;2024-03-23T19:33:20;0.70;;;0.70;;
27113;SDS011;14648;49.730;8.614;2024-03-23T19:35:47;0.87;;;0.87;;
27113;SDS011;14648;49.730;8.614;2024-03-23T19:38:20;1.93;;;1.23;;
27113;SDS011;14648;49.730;8.614;2024-03-23T19:40:52;1.80;;;0.80;;
27113;SDS011;14648;49.730;8.614;2024-03-23T19:43:19;0.60;;;0.60;;
27113;SDS011;14648;49.730;8.614;2024-03-23T19:45:45;0.70;;;0.70;;
27113;SDS011;14648;49.730;8.614;2024-03-23T19:48:10;0.60;;;0.60;;
27113;SDS011;14648;49.730;8.614;2024-03-23T19:50:36;6.23;;;1.27;;
27113;SDS011;14648;49.730;8.614;2024-03-23T19:53:02;0.70;;;0.70;;
27113;SDS011;14648;49.730;8.614;2024-03-23T19:55:29;0.70;;;0.70;;
27113;SDS011;14648;49.730;8.614;2024-03-23T19:57:57;0.80;;;0.80;;
27113;SDS011;14648;49.730;8.614;2024-03-23T20:00:26;1.23;;;0.90;;
27113;SDS011;14648;49.730;8.614;2024-03-23T20:02:52;1.10;;;0.60;;
27113;SDS011;14648;49.730;8.614;2024-03-23T20:05:17;5.70;;;0.93;;
27113;SDS011;14648;49.730;8.614;2024-03-23T20:07:43;3.47;;;1.00;;
27113;SDS011;14648;49.730;8.614;2024-03-23T20:10:09;0.80;;;0.80;;
27113;SDS011;14648;49.730;8.614;2024-03-23T20:12:38;1.50;;;1.13;;
27113;SDS011;14648;49.730;8.614;2024-03-23T20:15:04;0.90;;;0.70;;
27113;SDS011;14648;49.730;8.614;2024-03-23T20:17:32;3.83;;;1.10;;
27113;SDS011;14648;49.730;8.614;2024-03-23T20:19:58;0.70;;;0.70;;
27113;SDS011;14648;49.730;8.614;2024-03-23T20:22:23;1.03;;;0.70;;